Time;durP1;ratioP1;P1;durP2;ratioP2;P2;SDS_P1;SDS_P2;PMS_P1;PMS_P2;Temp;Humidity;BMP_temperature;BMP_pressure;BME280_temperature;BME280_humidity;BME280_pressure;Samples;Min_cycle;Max_cycle;Signal;HPM_P1;HPM_P2
2023/12/05 00:00:10;;;;;;;31.30;23.15;;;;;;;0.58;100.00;99938.50;1030431;28;20313;-91
2023/12/05 00:00:44;;;;;;;31.77;23.95;;;;;;;0.61;100.00;99943.41;1029847;28;20314;-91
2023/12/05 00:01:16;;;;;;;31.33;23.08;;;;;;;0.62;100.00;99941.59;1027440;28;20321;-91
2023/12/05 00:01:47;;;;;;;31.48;23.52;;;;;;;0.65;100.00;99938.63;1031847;28;20411;-91
2023/12/05 00:02:19;;;;;;;31.17;23.02;;;;;;;0.63;100.00;99935.38;1031961;28;20378;-91
2023/12/05 00:02:51;;;;;;;30.40;22.95;;;;;;;0.54;100.00;99937.19;1035471;28;20308;-93
2023/12/05 00:03:22;;;;;;;30.63;23.10;;;;;;;0.47;100.00;99935.44;1025583;28;20571;-92
2023/12/05 00:03:54;;;;;;;33.45;24.05;;;;;;;0.52;100.00;99935.75;1034847;28;20376;-92
2023/12/05 00:04:27;;;;;;;31.98;23.98;;;;;;;0.44;100.00;99934.00;1031890;28;20340;-92
2023/12/05 00:04:59;;;;;;;28.48;23.52;;;;;;;0.56;100.00;99930.00;1027653;28;20358;-91
2023/12/05 00:05:31;;;;;;;28.42;21.70;;;;;;;0.59;100.00;99936.69;1028435;28;20389;-92
2023/12/05 00:06:03;;;;;;;31.63;24.77;;;;;;;0.60;100.00;99935.72;1035829;28;20311;-91
2023/12/05 00:06:36;;;;;;;29.70;22.80;;;;;;;0.54;100.00;99937.19;1035371;28;20304;-91
2023/12/05 00:07:08;;;;;;;31.60;24.23;;;;;;;0.64;100.00;99930.94;1027511;28;20437;-92
2023/12/05 00:07:40;;;;;;;27.73;21.50;;;;;;;0.65;100.00;99927.31;1028256;28;20298;-91
2023/12/05 00:08:11;;;;;;;30.13;23.40;;;;;;;0.68;100.00;99938.28;1027516;28;20325;-91
2023/12/05 00:08:43;;;;;;;29.55;23.38;;;;;;;0.58;100.00;99937.69;1027264;28;20360;-90
2023/12/05 00:09:15;;;;;;;29.83;23.00;;;;;;;0.65;100.00;99927.31;1031770;28;20445;-91
2023/12/05 00:09:47;;;;;;;30.83;24.10;;;;;;;0.68;100.00;99921.72;1035946;28;20301;-91
2023/12/05 00:10:19;;;;;;;30.35;23.40;;;;;;;0.66;100.00;99929.78;1031489;28;20293;-90
2023/12/05 00:10:51;;;;;;;30.77;23.10;;;;;;;0.67;100.00;99927.97;1031698;28;20317;-90
2023/12/05 00:11:22;;;;;;;32.15;22.35;;;;;;;0.65;100.00;99925.50;1027370;28;20306;-90
2023/12/05 00:11:54;;;;;;;32.63;22.95;;;;;;;0.67;100.00;99931.41;1027283;28;20810;-90
2023/12/05 00:12:26;;;;;;;29.88;23.98;;;;;;;0.56;100.00;99923.94;1035963;28;20304;-91
2023/12/05 00:13:00;;;;;;;33.33;23.58;;;;;;;0.57;100.00;99918.53;1034238;28;20328;-90
2023/12/05 00:13:31;;;;;;;28.20;22.13;;;;;;;0.62;100.00;99928.50;1023719;28;20307;-91
2023/12/05 00:14:03;;;;;;;28.77;22.25;;;;;;;0.65;100.00;99922.91;1032049;28;20445;-91
2023/12/05 00:14:35;;;;;;;27.33;22.98;;;;;;;0.63;100.00;99927.50;1033030;28;20384;-91
2023/12/05 00:15:06;;;;;;;32.70;24.75;;;;;;;0.60;100.00;99920.81;1033605;28;20672;-91
2023/12/05 00:15:38;;;;;;;32.67;24.63;;;;;;;0.64;100.00;99923.06;1032146;28;20297;-91
2023/12/05 00:16:10;;;;;;;32.85;23.98;;;;;;;0.58;100.00;99916.72;1028006;28;20306;-91
2023/12/05 00:16:43;;;;;;;30.77;22.95;;;;;;;0.59;100.00;99915.75;1032092;28;20309;-92
2023/12/05 00:17:15;;;;;;;30.42;21.88;;;;;;;0.65;100.00;99919.47;1031722;28;20351;-91
2023/12/05 00:17:46;;;;;;;30.85;21.67;;;;;;;0.67;100.00;99914.84;1030077;28;20297;-92
2023/12/05 00:18:18;;;;;;;28.80;22.67;;;;;;;0.76;100.00;99919.84;1027755;28;20306;-92
2023/12/05 00:18:50;;;;;;;29.17;23.85;;;;;;;0.78;100.00;99917.06;1023238;28;20690;-92
2023/12/05 00:19:22;;;;;;;28.02;22.13;;;;;;;0.75;100.00;99918.22;1030832;28;20712;-91
2023/12/05 00:19:54;;;;;;;30.58;23.42;;;;;;;0.77;100.00;99923.28;1031893;28;20428;-91
2023/12/05 00:20:25;;;;;;;30.52;22.08;;;;;;;0.77;100.00;99921.47;1022700;28;20311;-91
2023/12/05 00:20:57;;;;;;;34.33;22.23;;;;;;;0.73;100.00;99914.97;1030008;28;20301;-91
2023/12/05 00:21:28;;;;;;;28.17;21.70;;;;;;;0.73;100.00;99906.28;1038495;28;20300;-91
2023/12/05 00:22:00;;;;;;;29.92;22.45;;;;;;;0.73;100.00;99917.59;1039622;28;20667;-92
2023/12/05 00:22:32;;;;;;;32.67;22.45;;;;;;;0.73;100.00;99914.16;1031732;28;20308;-91
2023/12/05 00:23:03;;;;;;;32.97;24.23;;;;;;;0.71;100.00;99919.56;1028379;28;20308;-90
2023/12/05 00:23:35;;;;;;;29.23;22.30;;;;;;;0.71;100.00;99922.19;1029728;28;20300;-91
2023/12/05 00:24:07;;;;;;;27.42;22.73;;;;;;;0.73;100.00;99917.59;1028336;28;20341;-91
2023/12/05 00:24:38;;;;;;;28.35;21.80;;;;;;;0.72;100.00;99917.75;1026116;28;20303;-91
2023/12/05 00:25:10;;;;;;;26.90;21.60;;;;;;;0.72;100.00;99913.34;1029752;28;20819;-91
2023/12/05 00:25:42;;;;;;;31.15;23.02;;;;;;;0.67;100.00;99914.84;1035889;28;20384;-91
2023/12/05 00:26:13;;;;;;;29.75;22.63;;;;;;;0.73;100.00;99914.97;1028018;28;20313;-91
2023/12/05 00:26:45;;;;;;;28.15;22.00;;;;;;;0.68;100.00;99921.72;1023782;29;20312;-91
2023/12/05 00:27:17;;;;;;;30.27;23.75;;;;;;;0.59;100.00;99918.34;1037655;28;20672;-91
2023/12/05 00:27:48;;;;;;;30.08;23.45;;;;;;;0.63;100.00;99909.16;1035632;28;20294;-90
2023/12/05 00:28:21;;;;;;;28.33;22.05;;;;;;;0.72;100.00;99918.59;1029130;28;20302;-90
2023/12/05 00:28:53;;;;;;;32.40;23.35;;;;;;;0.74;100.00;99916.59;1035148;28;20308;-91
2023/12/05 00:29:25;;;;;;;32.58;22.92;;;;;;;0.72;100.00;99913.34;1041183;28;20307;-91
2023/12/05 00:29:56;;;;;;;32.22;24.05;;;;;;;0.72;100.00;99918.59;1031620;28;20297;-91
2023/12/05 00:30:28;;;;;;;28.33;23.08;;;;;;;0.72;100.00;99912.53;1029815;28;20395;-91
2023/12/05 00:31:00;;;;;;;28.17;21.15;;;;;;;0.71;100.00;99919.56;1032141;28;20313;-91
2023/12/05 00:31:31;;;;;;;31.50;23.35;;;;;;;0.56;100.00;99918.72;1028872;28;20784;-91
2023/12/05 00:32:03;;;;;;;28.30;23.50;;;;;;;0.57;100.00;99918.53;1033980;28;20313;-91
2023/12/05 00:32:35;;;;;;;24.17;20.45;;;;;;;0.66;100.00;99921.09;1030047;28;20369;-90
2023/12/05 00:33:07;;;;;;;27.95;20.30;;;;;;;0.67;100.00;99915.69;1037354;28;20312;-92
2023/12/05 00:33:38;;;;;;;30.75;22.77;;;;;;;0.68;100.00;99916.50;1035732;28;20343;-91
2023/12/05 00:34:11;;;;;;;32.95;23.27;;;;;;;0.71;100.00;99914.31;1029349;28;20310;-91
2023/12/05 00:34:46;;;;;;;27.13;20.92;;;;;;;0.69;100.00;99918.94;1025252;28;20310;-91
2023/12/05 00:35:19;;;;;;;30.25;22.52;;;;;;;0.68;100.00;99914.69;1037794;28;20344;-90
2023/12/05 00:35:51;;;;;;;28.63;20.83;;;;;;;0.68;100.00;99916.50;1033101;28;20312;-91
2023/12/05 00:36:22;;;;;;;28.85;21.75;;;;;;;0.71;100.00;99914.31;1028340;28;20345;-91
2023/12/05 00:36:54;;;;;;;29.92;23.52;;;;;;;0.68;100.00;99912.06;1033681;28;20301;-91
2023/12/05 00:37:25;;;;;;;30.38;23.13;;;;;;;0.69;100.00;99916.31;1028874;28;20310;-90
2023/12/05 00:37:57;;;;;;;29.70;22.88;;;;;;;0.70;100.00;99915.31;1031974;28;20298;-92
2023/12/05 00:38:29;;;;;;;28.30;21.10;;;;;;;0.70;100.00;99915.31;1030092;28;20340;-91
2023/12/05 00:39:00;;;;;;;27.52;21.40;;;;;;;0.67;100.00;99909.63;1019982;29;20307;-92
2023/12/05 00:39:32;;;;;;;29.52;21.80;;;;;;;0.68;100.00;99919.94;1025959;28;20306;-91
2023/12/05 00:40:04;;;;;;;34.15;23.75;;;;;;;0.67;100.00;99915.69;1035118;28;20333;-91
2023/12/05 00:40:36;;;;;;;34.30;24.05;;;;;;;0.68;100.00;99911.25;1035005;28;20368;-90
2023/12/05 00:41:09;;;;;;;30.40;21.95;;;;;;;0.70;100.00;99920.56;1028785;28;20294;-91
2023/12/05 00:41:40;;;;;;;29.08;22.08;;;;;;;0.66;100.00;99916.66;1024213;28;20301;-90
2023/12/05 00:42:12;;;;;;;28.27;21.35;;;;;;;0.67;100.00;99914.84;1029256;28;20310;-91
2023/12/05 00:42:43;;;;;;;31.73;24.05;;;;;;;0.70;100.00;99912.69;1029071;28;20377;-91
2023/12/05 00:43:15;;;;;;;31.15;22.25;;;;;;;0.72;100.00;99902.84;1037356;28;20324;-91
2023/12/05 00:43:47;;;;;;;26.50;21.92;;;;;;;0.70;100.00;99915.31;1028379;28;20356;-92
2023/12/05 00:44:18;;;;;;;28.80;23.30;;;;;;;0.63;100.00;99917.03;1040441;28;20361;-91
2023/12/05 00:44:50;;;;;;;28.95;22.42;;;;;;;0.70;100.00;99914.50;1032649;28;20328;-91
2023/12/05 00:45:22;;;;;;;30.38;22.63;;;;;;;0.66;100.00;99908.81;1029051;28;20324;-91
2023/12/05 00:45:55;;;;;;;24.80;19.77;;;;;;;0.65;100.00;99915.03;1033898;28;20828;-90
2023/12/05 00:46:27;;;;;;;28.20;22.15;;;;;;;0.60;100.00;99909.50;1037443;28;20304;-92
2023/12/05 00:47:03;;;;;;;26.80;20.70;;;;;;;0.67;100.00;99910.44;1037219;28;20711;-90
2023/12/05 00:47:34;;;;;;;27.88;21.92;;;;;;;0.67;100.00;99907.81;1032944;28;20301;-89
2023/12/05 00:48:06;;;;;;;32.03;23.10;;;;;;;0.67;100.00;99910.44;1037265;28;20436;-92
2023/12/05 00:48:38;;;;;;;30.10;22.13;;;;;;;0.63;100.00;99922.25;1028804;28;20308;-91
2023/12/05 00:49:09;;;;;;;30.73;21.45;;;;;;;0.66;100.00;99908.00;1030719;28;20827;-91
2023/12/05 00:49:41;;;;;;;32.30;23.67;;;;;;;0.68;100.00;99909.44;1030193;28;20429;-91
2023/12/05 00:50:13;;;;;;;30.33;23.08;;;;;;;0.68;100.00;99911.25;1032659;28;20309;-90
2023/12/05 00:50:44;;;;;;;31.38;23.02;;;;;;;0.66;100.00;99911.44;1027881;28;20735;-91
2023/12/05 00:51:17;;;;;;;29.80;21.05;;;;;;;0.66;100.00;99905.38;1037103;28;20301;-90
2023/12/05 00:51:49;;;;;;;27.20;20.60;;;;;;;0.63;100.00;99914.41;1032934;28;20320;-90
2023/12/05 00:52:20;;;;;;;29.85;23.50;;;;;;;0.65;100.00;99903.75;1033345;28;20341;-91
2023/12/05 00:52:52;;;;;;;27.52;21.30;;;;;;;0.66;100.00;99910.59;1033578;28;20403;-90
2023/12/05 00:53:24;;;;;;;28.35;22.23;;;;;;;0.64;100.00;99912.59;1037367;28;20679;-91
2023/12/05 00:53:55;;;;;;;26.80;21.98;;;;;;;0.62;100.00;99910.16;1040394;28;20296;-90
2023/12/05 00:54:27;;;;;;;27.65;21.10;;;;;;;0.57;100.00;99909.88;1031172;28;20302;-90
2023/12/05 00:54:58;;;;;;;27.73;20.83;;;;;;;0.68;100.00;99901.59;1034269;28;20313;-90
2023/12/05 00:55:30;;;;;;;25.33;19.83;;;;;;;0.64;100.00;99905.53;1039880;28;20339;-92
2023/12/05 00:56:02;;;;;;;32.00;23.65;;;;;;;0.63;100.00;99914.41;1032989;28;20313;-93
2023/12/05 00:56:34;;;;;;;29.30;22.63;;;;;;;0.62;100.00;99904.91;1029506;28;20411;-91
2023/12/05 00:57:06;;;;;;;27.25;21.73;;;;;;;0.64;100.00;99913.41;1032939;28;20305;-92
2023/12/05 00:57:38;;;;;;;29.08;21.70;;;;;;;0.62;100.00;99907.53;1034554;28;20649;-90
2023/12/05 00:58:10;;;;;;;29.95;23.88;;;;;;;0.60;100.00;99906.88;1030688;28;20356;-91
2023/12/05 00:58:41;;;;;;;27.10;22.42;;;;;;;0.58;100.00;99906.25;1033033;28;20412;-93
2023/12/05 00:59:13;;;;;;;30.90;22.35;;;;;;;0.63;100.00;99909.16;1034596;28;20320;-93
2023/12/05 00:59:45;;;;;;;34.58;24.65;;;;;;;0.66;100.00;99903.56;1033199;28;20316;-91
2023/12/05 01:00:17;;;;;;;34.03;23.48;;;;;;;0.66;100.00;99914.03;1029195;28;20302;-92
2023/12/05 01:00:48;;;;;;;29.30;21.95;;;;;;;0.62;100.00;99902.28;1028217;28;20310;-92
2023/12/05 01:01:20;;;;;;;30.70;22.27;;;;;;;0.61;100.00;99901.47;1031206;28;20356;-91
2023/12/05 01:01:51;;;;;;;31.42;24.02;;;;;;;0.61;100.00;99908.53;1029638;28;20306;-92
2023/12/05 01:02:23;;;;;;;29.02;23.00;;;;;;;0.60;100.00;99914.75;1027154;28;20901;-91
2023/12/05 01:02:55;;;;;;;31.40;21.92;;;;;;;0.62;100.00;99912.78;1028918;28;20333;-94
2023/12/05 01:03:26;;;;;;;29.05;22.02;;;;;;;0.61;100.00;99911.13;1029562;28;20831;-93
2023/12/05 01:03:58;;;;;;;27.30;21.38;;;;;;;0.67;100.00;99910.44;1030320;28;20310;-93
2023/12/05 01:04:30;;;;;;;26.15;21.27;;;;;;;0.66;100.00;99908.81;1032117;28;20310;-92
2023/12/05 01:05:02;;;;;;;27.92;21.20;;;;;;;0.69;100.00;99910.25;1033006;28;20312;-92
2023/12/05 01:05:35;;;;;;;31.20;22.80;;;;;;;0.61;100.00;99911.13;1027058;28;20314;-92
2023/12/05 01:06:07;;;;;;;27.75;22.98;;;;;;;0.59;100.00;99907.88;1033043;28;20309;-92
2023/12/05 01:06:39;;;;;;;27.95;21.98;;;;;;;0.56;100.00;99905.63;1033010;28;20452;-93
2023/12/05 01:07:12;;;;;;;30.13;22.30;;;;;;;0.59;100.00;99907.88;1028546;28;20322;-91
2023/12/05 01:07:44;;;;;;;26.48;21.58;;;;;;;0.67;100.00;99910.44;1034386;28;20818;-91
2023/12/05 01:08:15;;;;;;;25.88;19.70;;;;;;;0.67;100.00;99907.81;1029798;28;20309;-92
2023/12/05 01:08:47;;;;;;;31.88;21.85;;;;;;;0.68;100.00;99898.97;1032214;28;20309;-92
2023/12/05 01:09:19;;;;;;;30.48;23.33;;;;;;;0.66;100.00;99903.56;1033874;28;20313;-92
2023/12/05 01:09:52;;;;;;;28.92;21.70;;;;;;;0.68;100.00;99898.97;1035078;28;20315;-93
2023/12/05 01:10:24;;;;;;;27.15;19.85;;;;;;;0.68;100.00;99909.44;1034843;28;20305;-92
2023/12/05 01:10:56;;;;;;;29.48;21.88;;;;;;;0.70;100.00;99899.59;1032959;28;20308;-92
2023/12/05 01:11:29;;;;;;;29.23;21.33;;;;;;;0.68;100.00;99906.81;1027011;28;20310;-93
2023/12/05 01:12:00;;;;;;;27.90;21.80;;;;;;;0.67;100.00;99910.44;1031853;28;20316;-93
2023/12/05 01:12:32;;;;;;;26.63;21.95;;;;;;;0.68;100.00;99904.19;1029013;28;20302;-93
2023/12/05 01:13:04;;;;;;;27.38;21.48;;;;;;;0.62;100.00;99902.28;1033174;28;20332;-93
2023/12/05 01:13:36;;;;;;;27.15;21.05;;;;;;;0.65;100.00;99901.94;1029723;28;20306;-93
2023/12/05 01:14:08;;;;;;;29.92;21.88;;;;;;;0.64;100.00;99902.91;1034353;28;20297;-93
2023/12/05 01:14:39;;;;;;;32.58;22.83;;;;;;;0.63;100.00;99905.72;1031374;28;20369;-92
2023/12/05 01:15:11;;;;;;;31.25;23.08;;;;;;;0.65;100.00;99903.75;1030662;28;20602;-91
2023/12/05 01:15:43;;;;;;;28.35;21.23;;;;;;;0.65;100.00;99898.50;1024579;28;20311;-93
2023/12/05 01:16:14;;;;;;;27.85;21.63;;;;;;;0.61;100.00;99896.22;1026645;28;20385;-93
2023/12/05 01:16:46;;;;;;;26.65;22.05;;;;;;;0.61;100.00;99906.72;1033198;28;20332;-92
2023/12/05 01:17:18;;;;;;;30.60;21.88;;;;;;;0.62;100.00;99904.91;1031793;28;20343;-93
2023/12/05 01:17:51;;;;;;;29.73;22.92;;;;;;;0.63;100.00;99898.69;1032943;28;20298;-92
2023/12/05 01:18:22;;;;;;;28.33;21.08;;;;;;;0.59;100.00;99905.25;1029056;28;20314;-94
2023/12/05 01:18:54;;;;;;;27.30;21.33;;;;;;;0.57;100.00;99897.56;1026724;28;20334;-93
2023/12/05 01:19:26;;;;;;;26.77;19.80;;;;;;;0.59;100.00;99900.03;1028655;28;20373;-93
2023/12/05 01:19:57;;;;;;;29.65;22.92;;;;;;;0.64;100.00;99902.91;1032876;28;20305;-93
2023/12/05 01:20:30;;;;;;;28.95;23.48;;;;;;;0.64;100.00;99899.50;1033059;28;20309;-91
2023/12/05 01:21:01;;;;;;;29.05;22.40;;;;;;;0.60;100.00;99899.03;1031792;28;20293;-93
2023/12/05 01:21:33;;;;;;;30.08;22.92;;;;;;;0.51;100.00;99895.63;1030014;28;20320;-94
2023/12/05 01:22:05;;;;;;;34.20;24.08;;;;;;;0.54;100.00;99899.69;1029414;28;20302;-92
2023/12/05 01:22:38;;;;;;;28.27;21.50;;;;;;;0.62;100.00;99897.03;1032667;28;20671;-93
2023/12/05 01:23:09;;;;;;;25.45;20.55;;;;;;;0.64;100.00;99887.19;1038599;28;20396;-92
2023/12/05 01:23:41;;;;;;;28.08;21.45;;;;;;;0.66;100.00;99889.66;1033341;28;20707;-92
2023/12/05 01:24:12;;;;;;;26.25;21.13;;;;;;;0.65;100.00;99894.06;1031071;28;20364;-93
2023/12/05 01:24:44;;;;;;;30.10;20.90;;;;;;;0.64;100.00;99904.72;1037618;28;20348;-95
2023/12/05 01:25:16;;;;;;;28.35;21.80;;;;;;;0.59;100.00;99885.13;1037707;28;20305;-93
2023/12/05 01:25:47;;;;;;;25.95;20.95;;;;;;;0.58;100.00;99895.78;1035498;28;20330;-92
2023/12/05 01:26:21;;;;;;;30.40;21.60;;;;;;;0.61;100.00;99890.19;1028625;28;20543;-93
2023/12/05 01:26:52;;;;;;;32.63;24.15;;;;;;;0.67;100.00;99897.34;1029852;28;20313;-93
2023/12/05 01:27:24;;;;;;;31.33;24.27;;;;;;;0.64;100.00;99895.06;1034996;28;20803;-93
2023/12/05 01:27:56;;;;;;;29.45;22.15;;;;;;;0.68;100.00;99898.97;1033699;28;20289;-93
2023/12/05 01:28:27;;;;;;;29.80;22.50;;;;;;;0.69;100.00;99891.91;1027459;28;20310;-91
2023/12/05 01:28:59;;;;;;;27.73;22.63;;;;;;;0.53;100.00;99892.84;1024113;29;20288;-93
2023/12/05 01:29:31;;;;;;;28.10;21.55;;;;;;;0.60;100.00;99891.16;1032873;28;20361;-92
2023/12/05 01:30:04;;;;;;;34.17;22.35;;;;;;;0.63;100.00;99888.19;1031106;28;20316;-93
2023/12/05 01:30:36;;;;;;;28.33;21.50;;;;;;;0.62;100.00;99897.03;1028869;28;20302;-93
2023/12/05 01:31:08;;;;;;;29.50;20.92;;;;;;;0.60;100.00;99891.97;1033229;28;20815;-92
2023/12/05 01:31:39;;;;;;;26.45;19.10;;;;;;;0.60;100.00;99889.38;1030638;28;20305;-92
2023/12/05 01:32:11;;;;;;;28.98;20.98;;;;;;;0.59;100.00;99887.72;1022518;28;20292;-93
2023/12/05 01:32:42;;;;;;;29.40;22.83;;;;;;;0.60;100.00;99885.94;1028059;28;20301;-93
2023/12/05 01:33:14;;;;;;;30.08;22.17;;;;;;;0.63;100.00;99884.75;1036461;28;20296;-92
2023/12/05 01:33:47;;;;;;;29.52;20.70;;;;;;;0.65;100.00;99885.41;1029218;28;20398;-92
2023/12/05 01:34:19;;;;;;;29.50;23.00;;;;;;;0.61;100.00;99884.94;1029773;28;20816;-93
2023/12/05 01:34:50;;;;;;;28.58;20.27;;;;;;;0.57;100.00;99883.66;1032182;28;20439;-94
2023/12/05 01:35:22;;;;;;;30.65;22.08;;;;;;;0.54;100.00;99886.59;1032663;28;20341;-93
2023/12/05 01:35:54;;;;;;;30.00;22.45;;;;;;;0.59;100.00;99882.50;1029426;28;20298;-93
2023/12/05 01:36:30;;;;;;;28.98;21.55;;;;;;;0.64;100.00;99878.53;1028199;28;20315;-90
2023/12/05 01:37:02;;;;;;;32.45;21.83;;;;;;;0.67;100.00;99886.03;1027288;28;20314;-92
2023/12/05 01:37:34;;;;;;;29.25;20.85;;;;;;;0.71;100.00;99882.88;1029729;28;20302;-93
2023/12/05 01:38:06;;;;;;;28.73;21.77;;;;;;;0.58;100.00;99882.66;1028486;28;20298;-93
2023/12/05 01:38:39;;;;;;;25.25;20.40;;;;;;;0.67;100.00;99878.16;1037452;28;20343;-95
2023/12/05 01:39:13;;;;;;;27.02;19.33;;;;;;;0.63;100.00;99877.72;1034358;28;20302;-92
2023/12/05 01:39:44;;;;;;;27.70;21.85;;;;;;;0.63;100.00;99885.56;1035925;28;20448;-92
2023/12/05 01:40:16;;;;;;;30.30;22.15;;;;;;;0.65;100.00;99880.97;1032627;28;20313;-93
2023/12/05 01:40:48;;;;;;;30.52;22.77;;;;;;;0.69;100.00;99887.47;1029911;28;20312;-92
2023/12/05 01:41:20;;;;;;;31.48;22.70;;;;;;;0.70;100.00;99883.88;1025514;28;20310;-92
2023/12/05 01:41:51;;;;;;;27.83;21.95;;;;;;;0.55;100.00;99890.88;1029837;28;20317;-94
2023/12/05 01:42:23;;;;;;;29.58;21.70;;;;;;;0.53;100.00;99880.53;1029756;28;20345;-93
2023/12/05 01:42:54;;;;;;;26.30;21.33;;;;;;;0.66;100.00;99885.22;1028538;28;20440;-93
2023/12/05 01:43:26;;;;;;;29.90;22.77;;;;;;;0.67;100.00;99883.41;1031387;28;20764;-91
2023/12/05 01:43:58;;;;;;;32.75;23.58;;;;;;;0.68;100.00;99882.41;1033428;28;21119;-93
2023/12/05 01:44:29;;;;;;;32.90;22.25;;;;;;;0.61;100.00;99884.94;1035926;28;20305;-93
2023/12/05 01:45:01;;;;;;;25.92;21.17;;;;;;;0.67;100.00;99880.78;1037843;28;20301;-93
2023/12/05 01:45:34;;;;;;;28.13;21.35;;;;;;;0.68;100.00;99879.81;1026916;28;20390;-96
2023/12/05 01:46:06;;;;;;;28.27;21.90;;;;;;;0.55;100.00;99888.25;1020446;29;20299;-93
2023/12/05 01:46:38;;;;;;;26.85;21.20;;;;;;;0.63;100.00;99877.72;1026733;28;20316;-92
2023/12/05 01:47:10;;;;;;;29.50;22.02;;;;;;;0.68;100.00;99879.81;1035280;28;20340;-92
2023/12/05 01:47:42;;;;;;;28.77;20.30;;;;;;;0.67;100.00;99878.97;1027349;28;20319;-93
2023/12/05 01:48:14;;;;;;;28.27;21.58;;;;;;;0.57;100.00;99879.22;1027331;28;20310;-94
2023/12/05 01:48:46;;;;;;;30.00;22.23;;;;;;;0.63;100.00;99882.13;1031863;28;20456;-93
2023/12/05 01:49:18;;;;;;;27.98;22.27;;;;;;;0.68;100.00;99885.84;1031581;28;20320;-92
2023/12/05 01:50:00;;;;;;;30.27;21.48;;;;;;;0.70;100.00;99888.31;1028016;28;20823;-93
2023/12/05 01:50:32;;;;;;;27.20;21.73;;;;;;;0.72;100.00;99881.88;1035533;28;20301;-93
2023/12/05 01:51:05;;;;;;;29.90;22.00;;;;;;;0.73;100.00;99883.53;1036238;28;20293;-93
2023/12/05 01:51:37;;;;;;;26.52;20.25;;;;;;;0.73;100.00;99888.75;1030721;28;20291;-92
2023/12/05 01:52:09;;;;;;;30.17;20.10;;;;;;;0.72;100.00;99886.31;1027009;28;20302;-93
2023/12/05 01:52:49;;;;;;;25.17;19.95;;;;;;;0.69;100.00;99884.88;1034794;28;20301;-94
2023/12/05 01:53:22;;;;;;;27.95;21.42;;;;;;;0.66;100.00;99887.84;1025159;28;20299;-93
2023/12/05 01:53:53;;;;;;;25.02;19.33;;;;;;;0.66;100.00;99892.25;1031046;28;20317;-92
2023/12/05 01:54:26;;;;;;;27.60;21.02;;;;;;;0.68;100.00;99885.03;1033211;28;20307;-92
2023/12/05 01:54:58;;;;;;;28.90;22.40;;;;;;;0.70;100.00;99889.13;1032805;28;20805;-93
2023/12/05 01:55:30;;;;;;;27.42;21.25;;;;;;;0.73;100.00;99886.13;1029031;28;20313;-94
2023/12/05 01:56:03;;;;;;;29.17;21.35;;;;;;;0.66;100.00;99893.06;1027845;28;20306;-94
2023/12/05 01:56:35;;;;;;;29.35;20.92;;;;;;;0.57;100.00;99894.94;1036824;28;20307;-93
2023/12/05 01:57:07;;;;;;;23.48;20.10;;;;;;;0.58;100.00;99895.78;1034371;28;20309;-93
2023/12/05 01:57:38;;;;;;;25.20;21.17;;;;;;;0.67;100.00;99889.47;1034011;28;20305;-93
2023/12/05 01:58:11;;;;;;;26.70;19.48;;;;;;;0.71;100.00;99893.38;1032048;28;20297;-93
2023/12/05 01:58:42;;;;;;;27.95;21.17;;;;;;;0.73;100.00;99890.56;1039855;28;20300;-93
2023/12/05 01:59:15;;;;;;;28.20;22.08;;;;;;;0.72;100.00;99892.38;1034539;28;20300;-93
2023/12/05 01:59:46;;;;;;;28.23;22.13;;;;;;;0.74;100.00;99885.16;1031173;28;20308;-93
2023/12/05 02:00:18;;;;;;;27.42;20.30;;;;;;;0.72;100.00;99895.00;1028732;28;20314;-92
2023/12/05 02:00:50;;;;;;;28.50;21.05;;;;;;;0.67;100.00;99894.72;1033147;28;20341;-92
2023/12/05 02:01:22;;;;;;;25.63;19.80;;;;;;;0.66;100.00;99892.25;1035933;28;20305;-92
2023/12/05 02:01:54;;;;;;;28.00;21.60;;;;;;;0.55;100.00;99891.69;1027182;28;20790;-94
2023/12/05 02:02:26;;;;;;;25.65;20.38;;;;;;;0.69;100.00;99894.53;1038075;28;20296;-92
2023/12/05 02:02:58;;;;;;;28.73;20.83;;;;;;;0.70;100.00;99893.53;1037118;28;20309;-93
2023/12/05 02:03:31;;;;;;;24.63;19.77;;;;;;;0.69;100.00;99905.84;1029195;28;20891;-93
2023/12/05 02:04:03;;;;;;;27.25;20.58;;;;;;;0.67;100.00;99893.91;1027493;28;20337;-92
2023/12/05 02:04:38;;;;;;;29.75;21.63;;;;;;;0.68;100.00;99891.09;1024375;28;20318;-92
2023/12/05 02:05:10;;;;;;;25.92;20.23;;;;;;;0.67;100.00;99889.47;1027898;28;20306;-94
2023/12/05 02:05:43;;;;;;;28.42;21.80;;;;;;;0.55;100.00;99893.50;1028930;28;20314;-91
2023/12/05 02:06:18;;;;;;;29.42;21.38;;;;;;;0.63;100.00;99893.44;1026952;28;20313;-93
2023/12/05 02:06:50;;;;;;;27.48;21.27;;;;;;;0.62;100.00;99886.56;1031345;28;20451;-93
2023/12/05 02:07:23;;;;;;;29.23;19.58;;;;;;;0.63;100.00;99885.56;1035104;28;20305;-93
2023/12/05 02:07:54;;;;;;;29.23;22.30;;;;;;;0.66;100.00;99889.66;1032784;28;20347;-92
2023/12/05 02:08:29;;;;;;;28.10;21.08;;;;;;;0.68;100.00;99891.09;1032712;28;20297;-92
2023/12/05 02:09:01;;;;;;;27.80;20.02;;;;;;;0.68;100.00;99888.47;1034580;28;20464;-93
2023/12/05 02:09:33;;;;;;;28.58;20.83;;;;;;;0.67;100.00;99884.22;1032200;28;20305;-92
2023/12/05 02:10:06;;;;;;;26.65;21.52;;;;;;;0.68;100.00;99885.03;1027717;28;20294;-92
2023/12/05 02:10:38;;;;;;;29.30;20.67;;;;;;;0.68;100.00;99891.09;1032293;28;20588;-93
2023/12/05 02:11:09;;;;;;;26.65;20.90;;;;;;;0.67;100.00;99886.03;1037035;28;20301;-92
2023/12/05 02:11:41;;;;;;;25.85;19.90;;;;;;;0.64;100.00;99884.59;1030674;28;20796;-93
2023/12/05 02:12:13;;;;;;;30.45;21.63;;;;;;;0.65;100.00;99885.41;1028865;28;20301;-94
2023/12/05 02:12:45;;;;;;;27.38;21.55;;;;;;;0.66;100.00;99885.22;1031566;28;20324;-92
2023/12/05 02:13:16;;;;;;;25.77;19.98;;;;;;;0.65;100.00;99891.44;1027418;28;20298;-94
2023/12/05 02:13:48;;;;;;;30.75;21.85;;;;;;;0.63;100.00;99887.38;1030779;28;20302;-93
2023/12/05 02:14:20;;;;;;;30.63;21.60;;;;;;;0.60;100.00;99899.03;1036682;28;20463;-93
2023/12/05 02:14:52;;;;;;;30.88;22.90;;;;;;;0.60;100.00;99883.31;1039362;28;20300;-93
2023/12/05 02:15:23;;;;;;;26.65;21.75;;;;;;;0.56;100.00;99897.75;1037201;28;20301;-93
2023/12/05 02:16:27;;;;;;;29.20;21.02;;;;;;;0.66;100.00;99882.59;1041292;28;20315;-92
2023/12/05 02:17:01;;;;;;;27.17;20.60;;;;;;;0.68;100.00;99883.22;1023779;29;20306;-94
2023/12/05 02:17:54;;;;;;;28.35;20.25;;;;;;;0.64;100.00;99878.53;1029456;28;20366;-93
2023/12/05 02:18:28;;;;;;;28.95;21.02;;;;;;;0.67;100.00;99888.66;1031832;28;20684;-93
2023/12/05 02:19:22;;;;;;;25.33;19.63;;;;;;;0.63;100.00;99890.81;1031803;28;20298;-91
2023/12/05 02:20:01;;;;;;;26.45;19.48;;;;;;;0.64;100.00;99881.97;1031363;28;20316;-93
2023/12/05 02:21:05;;;;;;;26.80;19.27;;;;;;;0.69;100.00;99887.47;1027174;28;20780;-92
2023/12/05 02:21:39;;;;;;;27.17;18.80;;;;;;;0.66;100.00;99887.03;1029019;28;20398;-95
2023/12/05 02:22:35;;;;;;;25.45;18.67;;;;;;;0.62;100.00;99891.81;1032090;28;20305;-94
2023/12/05 02:23:13;;;;;;;26.00;18.27;;;;;;;0.65;100.00;99886.22;1028111;28;20298;-93
2023/12/05 02:23:50;;;;;;;27.35;20.58;;;;;;;0.66;100.00;99879.97;1031771;28;20313;-92
2023/12/05 02:24:43;;;;;;;27.77;19.35;;;;;;;0.67;100.00;99884.22;1033152;28;20799;-94
2023/12/05 02:25:39;;;;;;;29.92;20.67;;;;;;;0.67;100.00;99881.59;1036527;28;20300;-93
2023/12/05 02:26:35;;;;;;;29.27;19.92;;;;;;;0.70;100.00;99877.81;1037846;28;20300;-93
2023/12/05 02:27:17;;;;;;;27.83;19.23;;;;;;;0.73;100.00;99877.47;1036735;28;20301;-93
2023/12/05 02:27:49;;;;;;;28.45;20.05;;;;;;;0.72;100.00;99887.13;1033397;28;20297;-93
2023/12/05 02:28:21;;;;;;;27.92;20.92;;;;;;;0.70;100.00;99885.69;1029135;28;20650;-92
2023/12/05 02:28:52;;;;;;;27.67;20.92;;;;;;;0.69;100.00;99884.88;1030948;28;20649;-93
2023/12/05 02:29:24;;;;;;;28.75;20.20;;;;;;;0.74;100.00;99876.47;1028290;28;20317;-93
2023/12/05 02:29:56;;;;;;;33.25;22.65;;;;;;;0.68;100.00;99877.19;1032599;28;20820;-93
2023/12/05 02:30:28;;;;;;;29.75;21.85;;;;;;;0.63;100.00;99882.94;1034273;28;20488;-93
2023/12/05 02:30:59;;;;;;;28.60;21.45;;;;;;;0.73;100.00;99885.31;1028656;28;20382;-94